createdAt,value
2022-12-31T00:01:16.402Z,51.28
2022-12-31T00:06:42.461Z,1.92
2022-12-31T00:09:26.664Z,1.80
2022-12-31T00:12:09.492Z,2.15
2022-12-31T00:14:52.323Z,52.13
2022-12-31T00:17:35.133Z,4.68
2022-12-31T00:20:18.494Z,4.75
2022-12-31T00:23:01.459Z,124.45
2022-12-31T00:25:45.601Z,138.18
2022-12-31T00:28:29.232Z,1.90
2022-12-31T00:31:14.939Z,23.48
2022-12-31T00:33:58.667Z,2.63
2022-12-31T00:36:42.601Z,3.28
2022-12-31T00:39:25.546Z,3.17
2022-12-31T00:42:09.721Z,3.75
2022-12-31T00:44:52.515Z,3.05
2022-12-31T00:47:35.346Z,2.50
2022-12-31T00:50:18.308Z,2.97
2022-12-31T00:53:01.141Z,4.10
2022-12-31T00:55:44.253Z,17.23
2022-12-31T00:58:28.493Z,176.98
2022-12-31T01:01:12.096Z,22.83
2022-12-31T01:03:57.361Z,255.02
2022-12-31T01:06:40.745Z,199.48
2022-12-31T01:09:23.524Z,277.55
2022-12-31T01:12:06.905Z,68.30
2022-12-31T01:14:51.064Z,4.15
2022-12-31T01:17:33.876Z,4.78
2022-12-31T01:20:16.815Z,4.22
2022-12-31T01:22:59.812Z,4.50
2022-12-31T01:25:42.854Z,5.30
2022-12-31T01:28:25.755Z,5.55
2022-12-31T01:31:12.101Z,4.90
2022-12-31T01:33:55.327Z,6.28
2022-12-31T01:36:38.705Z,4.45
2022-12-31T01:39:21.541Z,4.07
2022-12-31T01:42:04.433Z,4.63
2022-12-31T01:44:54.221Z,4.00
2022-12-31T01:47:43.114Z,3.60
2022-12-31T01:50:30.298Z,5.00
2022-12-31T01:53:13.244Z,7.28
2022-12-31T01:56:00.153Z,4.97
2022-12-31T01:58:47.102Z,5.10
2022-12-31T02:01:33.185Z,5.43
2022-12-31T02:04:17.753Z,5.28
2022-12-31T02:07:03.213Z,3.35
2022-12-31T02:09:46.037Z,3.58
2022-12-31T02:12:29.010Z,4.75
2022-12-31T02:15:12.437Z,4.55
2022-12-31T02:18:00.117Z,4.75
2022-12-31T02:21:21.315Z,4.70
2022-12-31T02:24:36.240Z,4.28
2022-12-31T02:27:34.931Z,5.93
2022-12-31T02:30:21.739Z,5.82
2022-12-31T02:33:14.971Z,7.80
2022-12-31T02:36:01.216Z,6.78
2022-12-31T02:38:47.832Z,5.70
2022-12-31T02:41:47.914Z,5.10
2022-12-31T02:44:33.100Z,6.53
2022-12-31T02:47:31.787Z,4.43
2022-12-31T02:50:29.495Z,4.88
2022-12-31T02:53:25.931Z,4.82
2022-12-31T02:56:16.032Z,4.20
2022-12-31T02:59:22.116Z,3.60
2022-12-31T03:02:16.571Z,3.72
2022-12-31T03:05:03.710Z,4.50
2022-12-31T03:07:47.216Z,2.80
2022-12-31T03:10:30.071Z,4.38
2022-12-31T03:13:11.900Z,3.90
2022-12-31T03:15:54.772Z,4.07
2022-12-31T03:18:51.883Z,4.45
2022-12-31T03:21:53.399Z,3.25
2022-12-31T03:24:54.011Z,5.70
2022-12-31T03:27:36.800Z,4.47
2022-12-31T03:30:21.323Z,4.20
2022-12-31T03:33:05.217Z,4.13
2022-12-31T03:35:49.155Z,3.47
2022-12-31T03:38:33.333Z,5.20
2022-12-31T03:41:16.152Z,5.07
2022-12-31T03:43:58.979Z,4.22
2022-12-31T03:46:41.771Z,5.05
2022-12-31T03:49:24.697Z,4.63
2022-12-31T03:52:08.685Z,5.10
2022-12-31T03:54:52.856Z,3.92
2022-12-31T03:57:35.752Z,3.83
2022-12-31T04:00:21.983Z,3.65
2022-12-31T04:03:05.135Z,6.00
2022-12-31T04:05:53.809Z,5.20
2022-12-31T04:08:36.631Z,5.32
2022-12-31T04:11:21.255Z,5.93
2022-12-31T04:16:47.088Z,55.30
2022-12-31T04:19:30.022Z,6.10
2022-12-31T04:22:13.230Z,18.55
2022-12-31T04:24:56.096Z,5.53
2022-12-31T04:27:41.386Z,5.68
2022-12-31T04:30:24.663Z,4.45
2022-12-31T04:33:07.491Z,187.13
2022-12-31T04:35:50.280Z,12.15
2022-12-31T04:38:33.420Z,8.23
2022-12-31T04:41:19.808Z,7.30
2022-12-31T04:44:04.033Z,6.95
2022-12-31T04:46:47.141Z,151.00
2022-12-31T04:49:30.067Z,225.52
2022-12-31T04:52:12.882Z,223.52
2022-12-31T04:54:55.727Z,240.00
2022-12-31T04:57:38.524Z,91.65
2022-12-31T05:00:22.795Z,71.03
2022-12-31T05:03:05.628Z,86.22
2022-12-31T05:05:50.065Z,36.17
2022-12-31T05:08:33.868Z,86.00
2022-12-31T05:11:17.765Z,53.80
2022-12-31T05:14:00.563Z,13.15
2022-12-31T05:16:44.781Z,4.90
2022-12-31T05:19:27.632Z,8.68
2022-12-31T05:22:27.942Z,11.43
2022-12-31T05:25:10.940Z,9.80
2022-12-31T05:27:53.988Z,9.88
2022-12-31T05:30:37.141Z,11.88
2022-12-31T05:33:22.951Z,11.02
2022-12-31T05:36:06.519Z,14.88
2022-12-31T05:38:49.325Z,15.27
2022-12-31T05:41:32.197Z,11.70
2022-12-31T05:44:15.176Z,11.23
2022-12-31T05:46:58.032Z,8.77
2022-12-31T05:49:42.276Z,9.60
2022-12-31T05:52:25.245Z,5.25
2022-12-31T05:55:08.487Z,13.88
2022-12-31T05:57:51.395Z,5.75
2022-12-31T06:00:34.273Z,6.68
2022-12-31T06:03:17.163Z,5.13
2022-12-31T06:06:02.486Z,6.15
2022-12-31T06:08:45.298Z,5.60
2022-12-31T06:11:28.178Z,5.25
2022-12-31T06:14:11.009Z,7.18
2022-12-31T06:16:54.008Z,6.80
2022-12-31T06:19:36.848Z,6.70
2022-12-31T06:22:21.068Z,3.28
2022-12-31T06:25:04.163Z,4.45
2022-12-31T06:27:47.000Z,5.13
2022-12-31T06:30:29.865Z,4.97
2022-12-31T06:33:12.748Z,4.45
2022-12-31T06:35:57.588Z,7.53
2022-12-31T06:38:42.905Z,7.68
2022-12-31T06:41:25.769Z,6.72
2022-12-31T06:44:08.697Z,10.98
2022-12-31T06:46:51.946Z,7.40
2022-12-31T06:49:34.848Z,7.40
2022-12-31T06:52:17.677Z,9.20
2022-12-31T06:55:02.431Z,8.07
2022-12-31T06:57:45.777Z,6.57
2022-12-31T07:00:29.612Z,12.88
2022-12-31T07:03:25.918Z,10.10
2022-12-31T07:06:12.291Z,10.20
2022-12-31T07:09:01.104Z,7.43
2022-12-31T07:11:57.835Z,9.05
2022-12-31T07:14:47.347Z,8.63
2022-12-31T07:17:36.653Z,6.65
2022-12-31T07:20:20.890Z,6.75
2022-12-31T07:23:04.187Z,10.82
2022-12-31T07:25:55.242Z,8.43
2022-12-31T07:28:52.113Z,7.03
2022-12-31T07:31:49.951Z,9.23
2022-12-31T07:34:43.039Z,10.88
2022-12-31T07:37:34.101Z,7.70
2022-12-31T07:40:24.991Z,5.03
2022-12-31T07:43:15.513Z,5.15
2022-12-31T07:46:08.530Z,7.63
2022-12-31T07:48:51.969Z,7.10
2022-12-31T07:51:35.865Z,8.77
2022-12-31T07:54:18.934Z,9.97
2022-12-31T07:57:01.962Z,5.65
2022-12-31T08:00:04.541Z,6.13
2022-12-31T08:03:09.131Z,9.35
2022-12-31T08:05:58.356Z,7.88
2022-12-31T08:08:51.817Z,5.07
2022-12-31T08:11:42.265Z,7.85
2022-12-31T08:14:25.649Z,5.70
2022-12-31T08:17:13.095Z,5.55
2022-12-31T08:19:58.664Z,6.63
2022-12-31T08:23:16.599Z,5.38
2022-12-31T08:26:09.845Z,6.20
2022-12-31T08:29:03.259Z,6.85
2022-12-31T08:31:55.102Z,9.52
2022-12-31T08:34:48.028Z,6.30
2022-12-31T08:37:40.239Z,7.15
2022-12-31T08:40:29.344Z,7.90
2022-12-31T08:43:27.166Z,3.95
2022-12-31T08:46:20.252Z,5.53
2022-12-31T08:49:03.622Z,7.13
2022-12-31T08:51:46.893Z,3.50
2022-12-31T08:54:31.903Z,6.05
2022-12-31T08:57:24.584Z,5.35
2022-12-31T09:00:12.223Z,3.72
2022-12-31T09:03:23.659Z,5.18
2022-12-31T09:06:12.616Z,7.30
2022-12-31T09:09:04.204Z,4.13
2022-12-31T09:12:05.114Z,2.22
2022-12-31T09:14:51.008Z,2.85
2022-12-31T09:17:45.817Z,2.75
2022-12-31T09:20:42.338Z,1.88
2022-12-31T09:23:27.046Z,3.45
2022-12-31T09:26:22.186Z,2.50
2022-12-31T09:29:15.109Z,4.10
2022-12-31T09:32:06.525Z,3.10
2022-12-31T09:34:56.656Z,4.03
2022-12-31T09:37:47.393Z,2.33
2022-12-31T09:40:50.138Z,3.05
2022-12-31T09:44:26.748Z,3.85
2022-12-31T09:47:39.288Z,2.00
2022-12-31T09:50:38.448Z,3.10
2022-12-31T09:53:32.093Z,3.20
2022-12-31T09:56:21.517Z,1.95
2022-12-31T09:59:11.434Z,1.67
2022-12-31T10:02:00.425Z,2.38
2022-12-31T10:05:00.563Z,3.90
2022-12-31T10:07:53.873Z,1.83
2022-12-31T10:10:47.508Z,1.58
2022-12-31T10:13:47.353Z,3.15
2022-12-31T10:16:52.983Z,1.58
2022-12-31T10:19:58.123Z,2.25
2022-12-31T10:23:00.604Z,2.85
2022-12-31T10:26:12.880Z,2.53
2022-12-31T10:29:00.849Z,1.73
2022-12-31T10:31:54.636Z,1.67
2022-12-31T10:34:52.734Z,1.55
2022-12-31T10:37:44.678Z,1.52
2022-12-31T10:40:45.494Z,1.40
2022-12-31T10:44:03.316Z,1.02
2022-12-31T10:47:04.881Z,1.35
2022-12-31T10:50:20.857Z,1.08
2022-12-31T10:53:48.079Z,3.15
2022-12-31T10:57:01.066Z,1.55
2022-12-31T11:00:16.434Z,1.95
2022-12-31T11:03:48.387Z,2.45
2022-12-31T11:07:14.011Z,1.88
2022-12-31T11:10:26.022Z,1.45
2022-12-31T11:13:40.282Z,1.80
2022-12-31T11:16:58.110Z,1.40
2022-12-31T11:19:52.139Z,1.63
2022-12-31T11:25:34.621Z,1.55
2022-12-31T11:28:50.201Z,1.75
2022-12-31T11:31:55.512Z,2.05
2022-12-31T11:35:01.684Z,2.45
2022-12-31T11:37:48.500Z,1.17
2022-12-31T11:40:54.383Z,1.83
2022-12-31T11:43:40.805Z,1.10
2022-12-31T11:46:51.726Z,2.45
2022-12-31T11:49:46.435Z,1.65
2022-12-31T11:52:47.982Z,1.30
2022-12-31T11:55:42.353Z,0.98
2022-12-31T11:58:28.681Z,1.67
2022-12-31T12:01:15.029Z,3.10
2022-12-31T12:03:59.282Z,1.58
2022-12-31T12:06:43.598Z,2.53
2022-12-31T12:09:29.483Z,2.13
2022-12-31T12:12:12.963Z,3.35
2022-12-31T12:14:56.332Z,2.67
2022-12-31T12:17:39.601Z,2.28
2022-12-31T12:20:31.815Z,2.33
2022-12-31T12:23:18.504Z,1.60
2022-12-31T12:26:02.586Z,1.70
2022-12-31T12:28:46.974Z,1.27
2022-12-31T12:34:23.963Z,4.03
2022-12-31T12:37:32.320Z,2.72
2022-12-31T12:40:29.896Z,2.28
2022-12-31T12:43:24.657Z,3.17
2022-12-31T12:46:18.055Z,1.85
2022-12-31T12:49:01.456Z,2.92
2022-12-31T12:51:59.189Z,3.53
2022-12-31T12:55:00.469Z,3.00
2022-12-31T12:57:50.321Z,3.47
2022-12-31T13:00:39.264Z,1.33
2022-12-31T13:04:23.754Z,2.72
2022-12-31T13:07:11.339Z,2.50
2022-12-31T13:10:16.652Z,2.10
2022-12-31T13:13:25.476Z,2.10
2022-12-31T13:16:17.740Z,1.50
2022-12-31T13:19:08.974Z,1.17
2022-12-31T13:21:58.992Z,1.52
2022-12-31T13:24:53.201Z,2.67
2022-12-31T13:27:40.597Z,2.30
2022-12-31T13:30:26.454Z,1.38
2022-12-31T13:33:18.218Z,1.73
2022-12-31T13:36:05.025Z,1.40
2022-12-31T13:38:52.243Z,1.73
2022-12-31T13:41:40.139Z,1.42
2022-12-31T13:44:30.044Z,1.65
2022-12-31T13:47:16.986Z,1.00
2022-12-31T13:50:04.867Z,1.63
2022-12-31T13:52:56.692Z,1.08
2022-12-31T13:55:43.303Z,0.98
2022-12-31T13:58:32.605Z,0.88
2022-12-31T14:01:21.982Z,0.40
2022-12-31T14:04:13.108Z,1.73
2022-12-31T14:06:59.894Z,0.55
2022-12-31T14:09:42.917Z,0.55
2022-12-31T14:12:39.735Z,1.40
2022-12-31T14:15:29.872Z,1.08
2022-12-31T14:18:22.961Z,2.60
2022-12-31T14:21:12.880Z,3.25
2022-12-31T14:24:06.840Z,2.30
2022-12-31T14:26:53.846Z,1.65
2022-12-31T14:29:41.995Z,1.30
2022-12-31T14:32:51.596Z,1.40
2022-12-31T14:36:10.327Z,1.00
2022-12-31T14:39:08.421Z,0.82
2022-12-31T14:42:04.577Z,1.30
2022-12-31T14:45:05.569Z,2.28
2022-12-31T14:47:54.693Z,2.83
2022-12-31T14:50:38.235Z,15.75
2022-12-31T14:53:26.709Z,21.88
2022-12-31T14:56:41.178Z,32.80
2022-12-31T14:59:28.722Z,14.13
2022-12-31T15:02:28.155Z,9.10
2022-12-31T15:05:18.003Z,17.55
2022-12-31T15:08:14.280Z,12.27
2022-12-31T15:11:35.777Z,11.48
2022-12-31T15:14:39.880Z,8.00
2022-12-31T15:17:31.871Z,5.85
2022-12-31T15:20:38.201Z,3.35
2022-12-31T15:23:24.405Z,2.50
2022-12-31T15:26:08.488Z,2.42
2022-12-31T15:29:00.659Z,2.47
2022-12-31T15:31:47.581Z,2.58
2022-12-31T15:34:33.780Z,2.75
2022-12-31T15:37:31.137Z,1.55
2022-12-31T15:40:25.038Z,1.35
2022-12-31T15:43:14.810Z,1.40
2022-12-31T15:45:58.666Z,1.10
2022-12-31T15:48:52.091Z,1.53
2022-12-31T15:51:44.117Z,1.65
2022-12-31T15:54:36.844Z,1.30
2022-12-31T15:57:24.307Z,1.85
2022-12-31T16:00:16.992Z,2.88
2022-12-31T16:03:00.020Z,3.22
2022-12-31T16:05:44.280Z,1.85
2022-12-31T16:08:31.150Z,3.55
2022-12-31T16:11:14.183Z,2.33
2022-12-31T16:13:59.737Z,3.95
2022-12-31T16:16:53.296Z,2.17
2022-12-31T16:19:42.693Z,1.52
2022-12-31T16:22:29.621Z,2.30
2022-12-31T16:25:33.105Z,2.45
2022-12-31T16:28:20.008Z,2.03
2022-12-31T16:31:05.538Z,4.97
2022-12-31T16:33:48.632Z,4.47
2022-12-31T16:36:31.895Z,10.25
2022-12-31T16:39:28.555Z,10.05
2022-12-31T16:42:22.029Z,8.05
2022-12-31T16:45:20.097Z,8.57
2022-12-31T16:48:13.022Z,5.93
2022-12-31T16:51:00.005Z,4.55
2022-12-31T16:53:43.759Z,2.25
2022-12-31T16:56:33.932Z,3.53
2022-12-31T16:59:29.234Z,2.60
2022-12-31T17:02:19.222Z,3.80
2022-12-31T17:05:02.540Z,2.30
2022-12-31T17:07:45.501Z,2.17
2022-12-31T17:10:36.162Z,2.92
2022-12-31T17:13:28.317Z,3.75
2022-12-31T17:16:12.201Z,1.67
2022-12-31T17:18:55.177Z,2.17
2022-12-31T17:21:38.029Z,1.45
2022-12-31T17:24:22.225Z,1.45
2022-12-31T17:27:07.095Z,2.97
2022-12-31T17:32:37.970Z,2.30
2022-12-31T17:35:30.142Z,1.40
2022-12-31T17:38:32.704Z,1.05
2022-12-31T17:41:18.387Z,1.50
2022-12-31T17:44:01.261Z,3.67
2022-12-31T17:46:45.583Z,1.85
2022-12-31T17:49:31.308Z,1.15
2022-12-31T17:52:15.826Z,2.28
2022-12-31T17:54:58.646Z,1.13
2022-12-31T17:57:47.334Z,1.30
2022-12-31T18:00:30.292Z,0.93
2022-12-31T18:03:14.497Z,1.50
2022-12-31T18:05:57.363Z,1.30
2022-12-31T18:08:40.267Z,0.88
2022-12-31T18:11:25.457Z,1.25
2022-12-31T18:14:08.492Z,0.73
2022-12-31T18:16:51.317Z,1.83
2022-12-31T18:20:03.520Z,1.05
2022-12-31T18:22:39.441Z,0.80
2022-12-31T18:25:24.226Z,0.73
2022-12-31T18:28:11.850Z,2.67
2022-12-31T18:30:54.713Z,1.50
2022-12-31T18:33:37.591Z,0.93
2022-12-31T18:36:22.828Z,1.20
2022-12-31T18:39:05.669Z,1.27
2022-12-31T18:41:50.056Z,0.73
2022-12-31T18:44:33.311Z,1.30
2022-12-31T18:47:18.372Z,1.70
2022-12-31T18:50:01.180Z,1.17
2022-12-31T18:52:45.503Z,1.23
2022-12-31T18:55:37.384Z,1.08
2022-12-31T18:58:20.373Z,1.27
2022-12-31T19:01:03.391Z,1.95
2022-12-31T19:03:46.254Z,1.10
2022-12-31T19:06:29.453Z,1.88
2022-12-31T19:09:43.427Z,2.17
2022-12-31T19:12:16.635Z,0.63
2022-12-31T19:14:59.796Z,0.63
2022-12-31T19:17:42.572Z,0.68
2022-12-31T19:20:25.477Z,1.83
2022-12-31T19:23:16.371Z,0.98
2022-12-31T19:26:00.816Z,1.50
2022-12-31T19:28:44.399Z,0.38
2022-12-31T19:31:27.230Z,2.08
2022-12-31T19:34:10.033Z,0.40
2022-12-31T19:36:52.920Z,0.50
2022-12-31T19:39:35.846Z,0.43
2022-12-31T19:42:20.145Z,0.52
2022-12-31T19:45:03.198Z,0.40
2022-12-31T19:47:46.348Z,0.65
2022-12-31T19:50:29.859Z,0.47
2022-12-31T19:53:14.811Z,0.30
2022-12-31T19:55:57.664Z,0.30
2022-12-31T19:58:42.005Z,0.20
2022-12-31T20:01:26.391Z,0.65
2022-12-31T20:04:09.405Z,1.90
2022-12-31T20:06:52.394Z,0.93
2022-12-31T20:09:35.179Z,0.45
2022-12-31T20:12:18.282Z,0.60
2022-12-31T20:15:02.472Z,2.00
2022-12-31T20:17:45.346Z,0.90
2022-12-31T20:20:29.703Z,0.88
2022-12-31T20:23:12.555Z,0.68
2022-12-31T20:25:58.773Z,0.77
2022-12-31T20:28:41.773Z,0.70
2022-12-31T20:31:26.449Z,0.32
2022-12-31T20:36:53.287Z,0.15
2022-12-31T20:39:36.222Z,0.20
2022-12-31T20:42:19.089Z,0.10
2022-12-31T20:45:01.900Z,0.22
2022-12-31T20:47:46.058Z,0.10
2022-12-31T20:50:28.876Z,0.20
2022-12-31T20:53:11.683Z,0.50
2022-12-31T20:55:54.509Z,0.45
2022-12-31T20:58:37.839Z,0.70
2022-12-31T21:01:20.888Z,2.67
2022-12-31T21:04:06.699Z,0.80
2022-12-31T21:06:49.981Z,1.40
2022-12-31T21:09:33.284Z,1.33
2022-12-31T21:12:33.753Z,0.95
2022-12-31T21:15:16.663Z,0.75
2022-12-31T21:18:00.469Z,0.90
2022-12-31T21:20:48.297Z,0.50
2022-12-31T21:23:31.394Z,0.40
2022-12-31T21:26:14.426Z,0.80
2022-12-31T21:28:57.277Z,0.63
2022-12-31T21:31:40.110Z,0.60
2022-12-31T21:34:22.956Z,1.05
2022-12-31T21:37:07.508Z,0.32
2022-12-31T21:39:50.301Z,0.22
2022-12-31T21:42:33.111Z,0.68
2022-12-31T21:45:15.994Z,0.93
2022-12-31T21:48:17.362Z,0.50
2022-12-31T21:51:07.883Z,0.40
2022-12-31T21:53:52.295Z,0.47
2022-12-31T21:56:34.147Z,0.85
2022-12-31T21:59:46.290Z,1.02
2022-12-31T22:02:59.746Z,0.82
2022-12-31T22:05:48.783Z,2.00
2022-12-31T22:08:32.139Z,1.85
2022-12-31T22:11:17.574Z,0.70
2022-12-31T22:14:00.392Z,0.63
2022-12-31T22:16:43.215Z,1.48
2022-12-31T22:19:26.136Z,0.47
2022-12-31T22:22:08.983Z,0.60
2022-12-31T22:24:51.806Z,0.85
2022-12-31T22:27:35.997Z,16.75
2022-12-31T22:30:19.077Z,10.00
2022-12-31T22:33:02.205Z,6.25
2022-12-31T22:35:45.020Z,6.78
2022-12-31T22:38:27.946Z,7.40
2022-12-31T22:41:12.453Z,13.35
2022-12-31T22:44:03.735Z,8.05
2022-12-31T22:46:49.171Z,6.85
2022-12-31T22:49:32.042Z,12.93
2022-12-31T22:52:14.877Z,19.33
2022-12-31T22:54:57.696Z,7.38
2022-12-31T22:57:40.461Z,4.25
2022-12-31T23:00:38.050Z,1.85
2022-12-31T23:03:21.191Z,1.98
2022-12-31T23:06:04.096Z,1.85
2022-12-31T23:09:07.738Z,2.70
2022-12-31T23:11:49.621Z,48.35
2022-12-31T23:14:49.787Z,14.00
2022-12-31T23:17:51.335Z,16.75
2022-12-31T23:20:51.917Z,23.88
2022-12-31T23:23:34.717Z,18.58
2022-12-31T23:26:17.536Z,12.38
2022-12-31T23:29:01.464Z,11.70
2022-12-31T23:31:44.291Z,7.03
2022-12-31T23:34:28.555Z,6.38
2022-12-31T23:37:11.486Z,8.02
2022-12-31T23:39:54.364Z,60.20
2022-12-31T23:42:37.178Z,20.25
2022-12-31T23:45:19.986Z,25.92
2022-12-31T23:48:02.987Z,131.70
2022-12-31T23:50:53.111Z,43.50
2022-12-31T23:53:38.635Z,24.10
2022-12-31T23:56:23.971Z,18.40
2022-12-31T23:59:07.302Z,12.25
